sensor_id;sensor_type;location;lat;lon;timestamp;P1;durP1;ratioP1;P2;durP2;ratioP2
5058;SDS011;2548;52.050;11.036;2023-12-20T00:00:01;0.93;;;0.93;;
5058;SDS011;2548;52.050;11.036;2023-12-20T00:02:33;1.02;;;0.88;;
5058;SDS011;2548;52.050;11.036;2023-12-20T00:05:02;0.70;;;0.70;;
5058;SDS011;2548;52.050;11.036;2023-12-20T00:07:30;0.95;;;0.95;;
5058;SDS011;2548;52.050;11.036;2023-12-20T00:10:11;0.70;;;0.70;;
5058;SDS011;2548;52.050;11.036;2023-12-20T00:12:39;0.80;;;0.80;;
5058;SDS011;2548;52.050;11.036;2023-12-20T00:15:16;0.75;;;0.75;;
5058;SDS011;2548;52.050;11.036;2023-12-20T00:17:43;0.90;;;0.90;;
5058;SDS011;2548;52.050;11.036;2023-12-20T00:20:29;0.80;;;0.80;;
5058;SDS011;2548;52.050;11.036;2023-12-20T00:23:05;0.80;;;0.80;;
5058;SDS011;2548;52.050;11.036;2023-12-20T00:25:35;1.15;;;1.15;;
5058;SDS011;2548;52.050;11.036;2023-12-20T00:28:02;1.17;;;1.08;;
5058;SDS011;2548;52.050;11.036;2023-12-20T00:30:30;1.30;;;1.20;;
5058;SDS011;2548;52.050;11.036;2023-12-20T00:33:05;1.20;;;1.20;;
5058;SDS011;2548;52.050;11.036;2023-12-20T00:35:35;1.30;;;1.30;;
5058;SDS011;2548;52.050;11.036;2023-12-20T00:38:02;1.13;;;1.13;;
5058;SDS011;2548;52.050;11.036;2023-12-20T00:40:41;1.10;;;1.10;;
5058;SDS011;2548;52.050;11.036;2023-12-20T00:43:08;1.33;;;1.30;;
5058;SDS011;2548;52.050;11.036;2023-12-20T00:45:38;1.67;;;1.58;;
5058;SDS011;2548;52.050;11.036;2023-12-20T00:48:14;1.55;;;1.50;;
5058;SDS011;2548;52.050;11.036;2023-12-20T00:50:45;1.55;;;1.45;;
5058;SDS011;2548;52.050;11.036;2023-12-20T00:53:12;3.08;;;2.00;;
5058;SDS011;2548;52.050;11.036;2023-12-20T00:55:44;1.48;;;1.48;;
5058;SDS011;2548;52.050;11.036;2023-12-20T00:58:15;1.40;;;1.40;;
5058;SDS011;2548;52.050;11.036;2023-12-20T01:00:43;1.52;;;1.42;;
5058;SDS011;2548;52.050;11.036;2023-12-20T01:03:13;1.60;;;1.50;;
5058;SDS011;2548;52.050;11.036;2023-12-20T01:05:41;1.70;;;1.60;;
5058;SDS011;2548;52.050;11.036;2023-12-20T01:08:29;1.90;;;1.80;;
5058;SDS011;2548;52.050;11.036;2023-12-20T01:11:00;2.13;;;2.03;;
5058;SDS011;2548;52.050;11.036;2023-12-20T01:13:33;1.95;;;1.85;;
5058;SDS011;2548;52.050;11.036;2023-12-20T01:16:05;1.88;;;1.83;;
5058;SDS011;2548;52.050;11.036;2023-12-20T01:18:32;1.40;;;1.40;;
5058;SDS011;2548;52.050;11.036;2023-12-20T01:21:01;2.53;;;1.40;;
5058;SDS011;2548;52.050;11.036;2023-12-20T01:23:36;1.30;;;1.30;;
5058;SDS011;2548;52.050;11.036;2023-12-20T01:26:05;1.50;;;1.50;;
5058;SDS011;2548;52.050;11.036;2023-12-20T01:28:32;1.63;;;1.63;;
5058;SDS011;2548;52.050;11.036;2023-12-20T01:31:00;1.75;;;1.75;;
5058;SDS011;2548;52.050;11.036;2023-12-20T01:33:36;2.22;;;2.13;;
5058;SDS011;2548;52.050;11.036;2023-12-20T01:36:12;2.35;;;2.25;;
5058;SDS011;2548;52.050;11.036;2023-12-20T01:38:43;2.25;;;2.15;;
5058;SDS011;2548;52.050;11.036;2023-12-20T01:41:17;3.03;;;2.90;;
5058;SDS011;2548;52.050;11.036;2023-12-20T01:43:45;3.92;;;3.45;;
5058;SDS011;2548;52.050;11.036;2023-12-20T01:46:19;3.47;;;3.17;;
5058;SDS011;2548;52.050;11.036;2023-12-20T01:48:53;3.35;;;3.15;;
5058;SDS011;2548;52.050;11.036;2023-12-20T01:51:23;3.80;;;3.60;;
5058;SDS011;2548;52.050;11.036;2023-12-20T01:54:02;4.50;;;2.63;;
5058;SDS011;2548;52.050;11.036;2023-12-20T01:56:31;3.25;;;2.75;;
5058;SDS011;2548;52.050;11.036;2023-12-20T01:59:00;3.10;;;2.80;;
5058;SDS011;2548;52.050;11.036;2023-12-20T02:01:37;3.92;;;2.15;;
5058;SDS011;2548;52.050;11.036;2023-12-20T02:04:04;13.02;;;2.08;;
5058;SDS011;2548;52.050;11.036;2023-12-20T02:06:32;5.55;;;2.67;;
5058;SDS011;2548;52.050;11.036;2023-12-20T02:09:00;2.90;;;2.50;;
5058;SDS011;2548;52.050;11.036;2023-12-20T02:11:32;3.40;;;2.42;;
5058;SDS011;2548;52.050;11.036;2023-12-20T02:14:01;3.83;;;2.47;;
5058;SDS011;2548;52.050;11.036;2023-12-20T02:16:34;3.95;;;2.80;;
5058;SDS011;2548;52.050;11.036;2023-12-20T02:19:03;6.00;;;3.40;;
5058;SDS011;2548;52.050;11.036;2023-12-20T02:21:34;3.75;;;2.65;;
5058;SDS011;2548;52.050;11.036;2023-12-20T02:24:01;3.50;;;3.17;;
5058;SDS011;2548;52.050;11.036;2023-12-20T02:26:29;5.90;;;3.70;;
5058;SDS011;2548;52.050;11.036;2023-12-20T02:28:57;7.65;;;4.20;;
5058;SDS011;2548;52.050;11.036;2023-12-20T02:31:24;4.50;;;3.47;;
5058;SDS011;2548;52.050;11.036;2023-12-20T02:34:01;3.40;;;3.13;;
5058;SDS011;2548;52.050;11.036;2023-12-20T02:36:43;5.20;;;4.70;;
5058;SDS011;2548;52.050;11.036;2023-12-20T02:39:13;10.60;;;5.03;;
5058;SDS011;2548;52.050;11.036;2023-12-20T02:41:44;6.43;;;5.72;;
5058;SDS011;2548;52.050;11.036;2023-12-20T02:44:17;9.07;;;4.55;;
5058;SDS011;2548;52.050;11.036;2023-12-20T02:46:44;7.05;;;4.85;;
5058;SDS011;2548;52.050;11.036;2023-12-20T02:49:12;6.95;;;5.93;;
5058;SDS011;2548;52.050;11.036;2023-12-20T02:51:39;6.50;;;5.20;;
5058;SDS011;2548;52.050;11.036;2023-12-20T02:54:11;13.00;;;6.10;;
5058;SDS011;2548;52.050;11.036;2023-12-20T02:56:38;9.88;;;5.78;;
5058;SDS011;2548;52.050;11.036;2023-12-20T02:59:17;11.82;;;5.75;;
5058;SDS011;2548;52.050;11.036;2023-12-20T03:01:47;6.13;;;5.30;;
5058;SDS011;2548;52.050;11.036;2023-12-20T03:04:15;10.55;;;4.47;;
5058;SDS011;2548;52.050;11.036;2023-12-20T03:06:44;9.48;;;4.72;;
5058;SDS011;2548;52.050;11.036;2023-12-20T03:09:13;11.85;;;4.07;;
5058;SDS011;2548;52.050;11.036;2023-12-20T03:11:41;9.23;;;4.80;;
5058;SDS011;2548;52.050;11.036;2023-12-20T03:14:14;9.45;;;3.78;;
5058;SDS011;2548;52.050;11.036;2023-12-20T03:16:48;20.83;;;4.85;;
5058;SDS011;2548;52.050;11.036;2023-12-20T03:19:16;10.15;;;3.28;;
5058;SDS011;2548;52.050;11.036;2023-12-20T03:21:45;11.25;;;3.17;;
5058;SDS011;2548;52.050;11.036;2023-12-20T03:24:16;7.20;;;3.35;;
5058;SDS011;2548;52.050;11.036;2023-12-20T03:26:46;9.82;;;2.50;;
5058;SDS011;2548;52.050;11.036;2023-12-20T03:29:14;4.63;;;2.60;;
5058;SDS011;2548;52.050;11.036;2023-12-20T03:31:41;10.93;;;2.47;;
5058;SDS011;2548;52.050;11.036;2023-12-20T03:34:12;15.40;;;2.42;;
5058;SDS011;2548;52.050;11.036;2023-12-20T03:37:03;14.18;;;3.60;;
5058;SDS011;2548;52.050;11.036;2023-12-20T03:39:32;10.90;;;3.72;;
5058;SDS011;2548;52.050;11.036;2023-12-20T03:41:59;8.23;;;2.33;;
5058;SDS011;2548;52.050;11.036;2023-12-20T03:44:32;8.90;;;2.40;;
5058;SDS011;2548;52.050;11.036;2023-12-20T03:47:08;11.85;;;2.70;;
5058;SDS011;2548;52.050;11.036;2023-12-20T03:49:39;5.90;;;2.20;;
5058;SDS011;2548;52.050;11.036;2023-12-20T03:52:06;17.02;;;3.22;;
5058;SDS011;2548;52.050;11.036;2023-12-20T03:54:36;13.02;;;3.47;;
5058;SDS011;2548;52.050;11.036;2023-12-20T03:57:06;11.65;;;3.60;;
5058;SDS011;2548;52.050;11.036;2023-12-20T03:59:34;21.70;;;3.10;;
5058;SDS011;2548;52.050;11.036;2023-12-20T04:02:03;5.43;;;2.42;;
5058;SDS011;2548;52.050;11.036;2023-12-20T04:04:31;5.03;;;2.30;;
5058;SDS011;2548;52.050;11.036;2023-12-20T04:06:58;14.35;;;2.75;;
5058;SDS011;2548;52.050;11.036;2023-12-20T04:09:31;10.90;;;2.92;;
5058;SDS011;2548;52.050;11.036;2023-12-20T04:12:09;10.05;;;2.55;;
5058;SDS011;2548;52.050;11.036;2023-12-20T04:14:37;7.60;;;1.77;;
5058;SDS011;2548;52.050;11.036;2023-12-20T04:17:10;7.20;;;1.60;;
5058;SDS011;2548;52.050;11.036;2023-12-20T04:19:48;9.70;;;2.30;;
5058;SDS011;2548;52.050;11.036;2023-12-20T04:22:15;11.90;;;2.10;;
5058;SDS011;2548;52.050;11.036;2023-12-20T04:24:50;3.67;;;1.75;;
5058;SDS011;2548;52.050;11.036;2023-12-20T04:27:27;8.18;;;2.58;;
5058;SDS011;2548;52.050;11.036;2023-12-20T04:29:57;6.00;;;1.92;;
5058;SDS011;2548;52.050;11.036;2023-12-20T04:32:25;8.55;;;1.90;;
5058;SDS011;2548;52.050;11.036;2023-12-20T04:34:52;8.18;;;2.10;;
5058;SDS011;2548;52.050;11.036;2023-12-20T04:37:22;8.38;;;1.70;;
5058;SDS011;2548;52.050;11.036;2023-12-20T04:39:55;3.70;;;1.40;;
5058;SDS011;2548;52.050;11.036;2023-12-20T04:42:22;10.05;;;2.10;;
5058;SDS011;2548;52.050;11.036;2023-12-20T04:44:54;4.55;;;1.50;;
5058;SDS011;2548;52.050;11.036;2023-12-20T04:47:21;10.80;;;2.17;;
5058;SDS011;2548;52.050;11.036;2023-12-20T04:49:51;7.15;;;2.10;;
5058;SDS011;2548;52.050;11.036;2023-12-20T04:52:21;3.60;;;1.60;;
5058;SDS011;2548;52.050;11.036;2023-12-20T04:54:49;14.15;;;2.40;;
5058;SDS011;2548;52.050;11.036;2023-12-20T04:57:19;21.00;;;2.63;;
5058;SDS011;2548;52.050;11.036;2023-12-20T04:59:49;9.15;;;2.67;;
5058;SDS011;2548;52.050;11.036;2023-12-20T05:02:24;10.40;;;2.78;;
5058;SDS011;2548;52.050;11.036;2023-12-20T05:04:52;5.60;;;2.70;;
5058;SDS011;2548;52.050;11.036;2023-12-20T05:07:19;12.85;;;2.65;;
5058;SDS011;2548;52.050;11.036;2023-12-20T05:09:50;10.48;;;2.17;;
5058;SDS011;2548;52.050;11.036;2023-12-20T05:12:17;5.18;;;1.50;;
5058;SDS011;2548;52.050;11.036;2023-12-20T05:14:45;5.13;;;3.90;;
5058;SDS011;2548;52.050;11.036;2023-12-20T05:17:14;10.50;;;9.43;;
5058;SDS011;2548;52.050;11.036;2023-12-20T05:19:42;3.92;;;1.60;;
5058;SDS011;2548;52.050;11.036;2023-12-20T05:22:09;6.03;;;1.52;;
5058;SDS011;2548;52.050;11.036;2023-12-20T05:24:37;2.95;;;1.63;;
5058;SDS011;2548;52.050;11.036;2023-12-20T05:27:04;5.20;;;2.00;;
5058;SDS011;2548;52.050;11.036;2023-12-20T05:29:31;2.45;;;1.33;;
5058;SDS011;2548;52.050;11.036;2023-12-20T05:31:59;5.47;;;1.65;;
5058;SDS011;2548;52.050;11.036;2023-12-20T05:34:28;4.70;;;1.20;;
5058;SDS011;2548;52.050;11.036;2023-12-20T05:36:55;2.78;;;1.83;;
5058;SDS011;2548;52.050;11.036;2023-12-20T05:39:23;5.05;;;1.67;;
5058;SDS011;2548;52.050;11.036;2023-12-20T05:41:50;2.88;;;1.45;;
5058;SDS011;2548;52.050;11.036;2023-12-20T05:44:17;4.53;;;0.80;;
5058;SDS011;2548;52.050;11.036;2023-12-20T05:46:48;7.70;;;2.05;;
5058;SDS011;2548;52.050;11.036;2023-12-20T05:49:15;6.88;;;1.35;;
5058;SDS011;2548;52.050;11.036;2023-12-20T05:51:55;5.18;;;1.50;;
5058;SDS011;2548;52.050;11.036;2023-12-20T05:54:22;8.73;;;1.42;;
5058;SDS011;2548;52.050;11.036;2023-12-20T05:56:50;8.50;;;1.70;;
5058;SDS011;2548;52.050;11.036;2023-12-20T05:59:17;7.45;;;1.90;;
5058;SDS011;2548;52.050;11.036;2023-12-20T06:01:45;3.65;;;1.40;;
5058;SDS011;2548;52.050;11.036;2023-12-20T06:04:12;5.70;;;1.40;;
5058;SDS011;2548;52.050;11.036;2023-12-20T06:06:40;2.80;;;1.55;;
5058;SDS011;2548;52.050;11.036;2023-12-20T06:09:12;10.65;;;1.85;;
5058;SDS011;2548;52.050;11.036;2023-12-20T06:11:51;4.40;;;1.83;;
5058;SDS011;2548;52.050;11.036;2023-12-20T06:14:18;8.77;;;1.90;;
5058;SDS011;2548;52.050;11.036;2023-12-20T06:16:46;4.30;;;1.63;;
5058;SDS011;2548;52.050;11.036;2023-12-20T06:19:13;2.45;;;1.42;;
5058;SDS011;2548;52.050;11.036;2023-12-20T06:21:44;4.35;;;2.05;;
5058;SDS011;2548;52.050;11.036;2023-12-20T06:24:12;7.53;;;1.23;;
5058;SDS011;2548;52.050;11.036;2023-12-20T06:26:40;5.80;;;2.08;;
5058;SDS011;2548;52.050;11.036;2023-12-20T06:29:08;4.28;;;2.80;;
5058;SDS011;2548;52.050;11.036;2023-12-20T06:31:35;10.88;;;2.40;;
5058;SDS011;2548;52.050;11.036;2023-12-20T06:34:03;6.28;;;2.38;;
5058;SDS011;2548;52.050;11.036;2023-12-20T06:36:30;9.95;;;1.58;;
5058;SDS011;2548;52.050;11.036;2023-12-20T06:38:58;4.40;;;2.28;;
5058;SDS011;2548;52.050;11.036;2023-12-20T06:41:29;6.55;;;2.17;;
5058;SDS011;2548;52.050;11.036;2023-12-20T06:44:03;12.98;;;2.70;;
5058;SDS011;2548;52.050;11.036;2023-12-20T06:46:30;8.13;;;1.90;;
5058;SDS011;2548;52.050;11.036;2023-12-20T06:48:57;14.57;;;3.25;;
5058;SDS011;2548;52.050;11.036;2023-12-20T06:51:28;10.55;;;2.38;;
5058;SDS011;2548;52.050;11.036;2023-12-20T06:53:56;3.80;;;1.67;;
5058;SDS011;2548;52.050;11.036;2023-12-20T06:56:24;6.75;;;3.00;;
5058;SDS011;2548;52.050;11.036;2023-12-20T06:58:53;20.45;;;2.72;;
5058;SDS011;2548;52.050;11.036;2023-12-20T07:01:20;6.75;;;1.90;;
5058;SDS011;2548;52.050;11.036;2023-12-20T07:04:03;5.80;;;2.78;;
5058;SDS011;2548;52.050;11.036;2023-12-20T07:06:31;8.13;;;2.65;;
5058;SDS011;2548;52.050;11.036;2023-12-20T07:08:58;7.45;;;2.60;;
5058;SDS011;2548;52.050;11.036;2023-12-20T07:11:25;8.45;;;2.65;;
5058;SDS011;2548;52.050;11.036;2023-12-20T07:13:54;11.65;;;2.92;;
5058;SDS011;2548;52.050;11.036;2023-12-20T07:16:22;14.95;;;4.57;;
5058;SDS011;2548;52.050;11.036;2023-12-20T07:18:50;11.32;;;3.15;;
5058;SDS011;2548;52.050;11.036;2023-12-20T07:21:18;5.32;;;2.00;;
5058;SDS011;2548;52.050;11.036;2023-12-20T07:23:45;9.25;;;2.22;;
5058;SDS011;2548;52.050;11.036;2023-12-20T07:26:13;7.32;;;3.00;;
5058;SDS011;2548;52.050;11.036;2023-12-20T07:28:46;9.50;;;3.75;;
5058;SDS011;2548;52.050;11.036;2023-12-20T07:31:16;11.60;;;5.30;;
5058;SDS011;2548;52.050;11.036;2023-12-20T07:33:43;6.07;;;3.35;;
5058;SDS011;2548;52.050;11.036;2023-12-20T07:36:13;7.30;;;3.33;;
5058;SDS011;2548;52.050;11.036;2023-12-20T07:38:40;13.65;;;2.63;;
5058;SDS011;2548;52.050;11.036;2023-12-20T07:41:11;11.23;;;2.78;;
5058;SDS011;2548;52.050;11.036;2023-12-20T07:43:38;15.50;;;3.00;;
5058;SDS011;2548;52.050;11.036;2023-12-20T07:46:06;12.18;;;3.10;;
5058;SDS011;2548;52.050;11.036;2023-12-20T07:48:39;4.07;;;2.40;;
5058;SDS011;2548;52.050;11.036;2023-12-20T07:51:07;10.43;;;2.58;;
5058;SDS011;2548;52.050;11.036;2023-12-20T07:53:41;11.13;;;2.53;;
5058;SDS011;2548;52.050;11.036;2023-12-20T07:56:15;8.93;;;2.63;;
5058;SDS011;2548;52.050;11.036;2023-12-20T07:58:43;12.32;;;3.13;;
5058;SDS011;2548;52.050;11.036;2023-12-20T08:01:10;5.68;;;2.55;;
5058;SDS011;2548;52.050;11.036;2023-12-20T08:03:39;14.52;;;3.28;;
5058;SDS011;2548;52.050;11.036;2023-12-20T08:06:12;14.85;;;2.85;;
5058;SDS011;2548;52.050;11.036;2023-12-20T08:08:40;10.57;;;3.25;;
5058;SDS011;2548;52.050;11.036;2023-12-20T08:11:10;8.60;;;3.42;;
5058;SDS011;2548;52.050;11.036;2023-12-20T08:13:38;8.18;;;3.40;;
5058;SDS011;2548;52.050;11.036;2023-12-20T08:16:06;14.57;;;3.75;;
5058;SDS011;2548;52.050;11.036;2023-12-20T08:18:34;9.82;;;3.67;;
5058;SDS011;2548;52.050;11.036;2023-12-20T08:21:02;11.95;;;3.42;;
5058;SDS011;2548;52.050;11.036;2023-12-20T08:23:33;12.25;;;2.90;;
5058;SDS011;2548;52.050;11.036;2023-12-20T08:26:03;10.00;;;4.07;;
5058;SDS011;2548;52.050;11.036;2023-12-20T08:28:31;10.18;;;2.95;;
5058;SDS011;2548;52.050;11.036;2023-12-20T08:30:59;5.72;;;2.92;;
5058;SDS011;2548;52.050;11.036;2023-12-20T08:33:34;8.07;;;2.78;;
5058;SDS011;2548;52.050;11.036;2023-12-20T08:36:03;10.43;;;3.03;;
5058;SDS011;2548;52.050;11.036;2023-12-20T08:38:31;9.90;;;2.78;;
5058;SDS011;2548;52.050;11.036;2023-12-20T08:40:59;8.38;;;2.88;;
5058;SDS011;2548;52.050;11.036;2023-12-20T08:43:30;6.53;;;2.90;;
5058;SDS011;2548;52.050;11.036;2023-12-20T08:45:58;5.22;;;3.08;;
5058;SDS011;2548;52.050;11.036;2023-12-20T08:48:25;11.20;;;3.60;;
5058;SDS011;2548;52.050;11.036;2023-12-20T08:50:53;9.90;;;2.85;;
5058;SDS011;2548;52.050;11.036;2023-12-20T08:53:25;9.60;;;2.80;;
5058;SDS011;2548;52.050;11.036;2023-12-20T08:55:52;9.25;;;3.50;;
5058;SDS011;2548;52.050;11.036;2023-12-20T08:58:20;7.00;;;3.20;;
5058;SDS011;2548;52.050;11.036;2023-12-20T09:00:50;11.85;;;2.72;;
5058;SDS011;2548;52.050;11.036;2023-12-20T09:03:20;6.47;;;2.60;;
5058;SDS011;2548;52.050;11.036;2023-12-20T09:05:48;9.10;;;2.95;;
5058;SDS011;2548;52.050;11.036;2023-12-20T09:08:18;6.45;;;2.47;;
5058;SDS011;2548;52.050;11.036;2023-12-20T09:10:50;6.55;;;2.05;;
5058;SDS011;2548;52.050;11.036;2023-12-20T09:13:17;7.05;;;2.92;;
5058;SDS011;2548;52.050;11.036;2023-12-20T09:15:46;8.95;;;3.17;;
5058;SDS011;2548;52.050;11.036;2023-12-20T09:18:13;5.60;;;2.63;;
5058;SDS011;2548;52.050;11.036;2023-12-20T09:20:41;7.05;;;2.85;;
5058;SDS011;2548;52.050;11.036;2023-12-20T09:23:08;9.85;;;3.10;;
5058;SDS011;2548;52.050;11.036;2023-12-20T09:25:39;7.07;;;2.70;;
5058;SDS011;2548;52.050;11.036;2023-12-20T09:28:07;9.05;;;2.95;;
5058;SDS011;2548;52.050;11.036;2023-12-20T09:30:35;9.07;;;3.17;;
5058;SDS011;2548;52.050;11.036;2023-12-20T09:33:05;11.30;;;2.72;;
5058;SDS011;2548;52.050;11.036;2023-12-20T09:35:36;9.55;;;2.75;;
5058;SDS011;2548;52.050;11.036;2023-12-20T09:38:17;9.75;;;3.38;;
5058;SDS011;2548;52.050;11.036;2023-12-20T09:40:50;7.60;;;2.75;;
5058;SDS011;2548;52.050;11.036;2023-12-20T09:43:21;13.38;;;3.72;;
5058;SDS011;2548;52.050;11.036;2023-12-20T09:45:59;12.40;;;2.67;;
5058;SDS011;2548;52.050;11.036;2023-12-20T09:48:32;7.75;;;2.55;;
5058;SDS011;2548;52.050;11.036;2023-12-20T09:51:00;10.38;;;2.90;;
5058;SDS011;2548;52.050;11.036;2023-12-20T09:53:27;8.68;;;3.10;;
5058;SDS011;2548;52.050;11.036;2023-12-20T09:56:00;7.88;;;2.95;;
5058;SDS011;2548;52.050;11.036;2023-12-20T09:58:31;4.95;;;2.65;;
5058;SDS011;2548;52.050;11.036;2023-12-20T10:00:58;10.55;;;3.22;;
5058;SDS011;2548;52.050;11.036;2023-12-20T10:03:27;10.70;;;3.22;;
5058;SDS011;2548;52.050;11.036;2023-12-20T10:06:06;11.35;;;3.33;;
5058;SDS011;2548;52.050;11.036;2023-12-20T10:08:34;4.30;;;2.60;;
5058;SDS011;2548;52.050;11.036;2023-12-20T10:11:01;9.38;;;3.28;;
5058;SDS011;2548;52.050;11.036;2023-12-20T10:13:33;7.10;;;3.13;;
5058;SDS011;2548;52.050;11.036;2023-12-20T10:16:01;8.00;;;2.28;;
5058;SDS011;2548;52.050;11.036;2023-12-20T10:18:30;4.43;;;1.98;;
5058;SDS011;2548;52.050;11.036;2023-12-20T10:20:58;7.55;;;2.60;;
5058;SDS011;2548;52.050;11.036;2023-12-20T10:23:25;8.85;;;3.45;;
5058;SDS011;2548;52.050;11.036;2023-12-20T10:25:59;13.43;;;3.38;;
5058;SDS011;2548;52.050;11.036;2023-12-20T10:28:26;7.50;;;3.00;;
5058;SDS011;2548;52.050;11.036;2023-12-20T10:31:01;6.93;;;3.30;;
5058;SDS011;2548;52.050;11.036;2023-12-20T10:33:29;7.10;;;3.08;;
5058;SDS011;2548;52.050;11.036;2023-12-20T10:35:58;8.07;;;2.75;;
5058;SDS011;2548;52.050;11.036;2023-12-20T10:38:25;4.95;;;2.78;;
5058;SDS011;2548;52.050;11.036;2023-12-20T10:40:56;8.10;;;3.35;;
5058;SDS011;2548;52.050;11.036;2023-12-20T10:43:24;12.43;;;3.80;;
5058;SDS011;2548;52.050;11.036;2023-12-20T10:46:04;9.82;;;3.85;;
5058;SDS011;2548;52.050;11.036;2023-12-20T10:48:32;6.65;;;3.30;;
5058;SDS011;2548;52.050;11.036;2023-12-20T10:51:12;7.40;;;3.75;;
5058;SDS011;2548;52.050;11.036;2023-12-20T10:53:50;6.05;;;2.67;;
5058;SDS011;2548;52.050;11.036;2023-12-20T10:56:18;6.47;;;2.53;;
5058;SDS011;2548;52.050;11.036;2023-12-20T10:58:49;6.80;;;3.28;;
5058;SDS011;2548;52.050;11.036;2023-12-20T11:01:21;4.78;;;2.70;;
5058;SDS011;2548;52.050;11.036;2023-12-20T11:03:50;8.82;;;3.17;;
5058;SDS011;2548;52.050;11.036;2023-12-20T11:06:27;3.05;;;2.25;;
5058;SDS011;2548;52.050;11.036;2023-12-20T11:09:10;4.30;;;2.38;;
5058;SDS011;2548;52.050;11.036;2023-12-20T11:11:49;8.80;;;2.90;;
5058;SDS011;2548;52.050;11.036;2023-12-20T11:14:27;9.90;;;2.03;;
5058;SDS011;2548;52.050;11.036;2023-12-20T11:17:14;4.18;;;2.05;;
5058;SDS011;2548;52.050;11.036;2023-12-20T11:22:58;7.53;;;2.50;;
5058;SDS011;2548;52.050;11.036;2023-12-20T11:25:28;5.15;;;2.17;;
5058;SDS011;2548;52.050;11.036;2023-12-20T11:28:14;4.65;;;2.70;;
5058;SDS011;2548;52.050;11.036;2023-12-20T11:30:47;11.15;;;2.70;;
5058;SDS011;2548;52.050;11.036;2023-12-20T11:33:26;6.45;;;3.08;;
5058;SDS011;2548;52.050;11.036;2023-12-20T11:35:56;9.93;;;2.92;;
5058;SDS011;2548;52.050;11.036;2023-12-20T11:38:32;9.18;;;3.42;;
5058;SDS011;2548;52.050;11.036;2023-12-20T11:41:05;8.95;;;2.55;;
5058;SDS011;2548;52.050;11.036;2023-12-20T11:43:39;5.75;;;2.45;;
5058;SDS011;2548;52.050;11.036;2023-12-20T11:46:09;6.07;;;2.55;;
5058;SDS011;2548;52.050;11.036;2023-12-20T11:48:41;5.78;;;3.00;;
5058;SDS011;2548;52.050;11.036;2023-12-20T11:51:13;8.52;;;2.30;;
5058;SDS011;2548;52.050;11.036;2023-12-20T11:53:50;10.75;;;3.78;;
5058;SDS011;2548;52.050;11.036;2023-12-20T11:56:18;5.90;;;3.55;;
5058;SDS011;2548;52.050;11.036;2023-12-20T11:58:49;3.25;;;2.95;;
5058;SDS011;2548;52.050;11.036;2023-12-20T12:01:23;6.88;;;2.85;;
5058;SDS011;2548;52.050;11.036;2023-12-20T12:04:03;11.55;;;3.33;;
5058;SDS011;2548;52.050;11.036;2023-12-20T12:06:34;12.73;;;4.10;;
5058;SDS011;2548;52.050;11.036;2023-12-20T12:09:04;5.07;;;3.00;;
5058;SDS011;2548;52.050;11.036;2023-12-20T12:11:45;5.20;;;2.80;;
5058;SDS011;2548;52.050;11.036;2023-12-20T12:14:13;6.55;;;3.60;;
5058;SDS011;2548;52.050;11.036;2023-12-20T12:16:41;8.40;;;3.40;;
5058;SDS011;2548;52.050;11.036;2023-12-20T12:19:21;5.55;;;3.10;;
5058;SDS011;2548;52.050;11.036;2023-12-20T12:21:49;7.80;;;3.50;;
5058;SDS011;2548;52.050;11.036;2023-12-20T12:24:20;7.47;;;3.72;;
5058;SDS011;2548;52.050;11.036;2023-12-20T12:26:52;9.85;;;3.78;;
5058;SDS011;2548;52.050;11.036;2023-12-20T12:29:24;6.28;;;2.97;;
5058;SDS011;2548;52.050;11.036;2023-12-20T12:31:56;9.68;;;3.45;;
5058;SDS011;2548;52.050;11.036;2023-12-20T12:34:28;9.20;;;3.40;;
5058;SDS011;2548;52.050;11.036;2023-12-20T12:36:55;8.52;;;4.30;;
5058;SDS011;2548;52.050;11.036;2023-12-20T12:39:26;3.42;;;3.10;;
5058;SDS011;2548;52.050;11.036;2023-12-20T12:41:55;6.93;;;3.13;;
5058;SDS011;2548;52.050;11.036;2023-12-20T12:44:23;5.90;;;3.70;;
5058;SDS011;2548;52.050;11.036;2023-12-20T12:46:54;7.25;;;3.60;;
5058;SDS011;2548;52.050;11.036;2023-12-20T12:49:22;6.53;;;3.60;;
5058;SDS011;2548;52.050;11.036;2023-12-20T12:51:53;6.65;;;4.22;;
5058;SDS011;2548;52.050;11.036;2023-12-20T12:54:23;7.88;;;3.80;;
5058;SDS011;2548;52.050;11.036;2023-12-20T12:56:51;7.43;;;3.80;;
5058;SDS011;2548;52.050;11.036;2023-12-20T12:59:18;11.63;;;4.43;;
5058;SDS011;2548;52.050;11.036;2023-12-20T13:01:49;3.70;;;3.40;;
5058;SDS011;2548;52.050;11.036;2023-12-20T13:04:22;3.10;;;2.90;;
5058;SDS011;2548;52.050;11.036;2023-12-20T13:06:51;6.25;;;3.63;;
5058;SDS011;2548;52.050;11.036;2023-12-20T13:09:27;10.25;;;4.82;;
5058;SDS011;2548;52.050;11.036;2023-12-20T13:11:55;3.60;;;2.72;;
5058;SDS011;2548;52.050;11.036;2023-12-20T13:14:22;6.75;;;3.55;;
5058;SDS011;2548;52.050;11.036;2023-12-20T13:16:53;6.45;;;2.90;;
5058;SDS011;2548;52.050;11.036;2023-12-20T13:19:21;5.68;;;2.05;;
5058;SDS011;2548;52.050;11.036;2023-12-20T13:21:55;2.80;;;1.83;;
5058;SDS011;2548;52.050;11.036;2023-12-20T13:24:26;3.75;;;1.30;;
5058;SDS011;2548;52.050;11.036;2023-12-20T13:26:57;4.00;;;0.90;;
5058;SDS011;2548;52.050;11.036;2023-12-20T13:29:28;1.67;;;0.85;;
5058;SDS011;2548;52.050;11.036;2023-12-20T13:32:01;1.45;;;1.00;;
5058;SDS011;2548;52.050;11.036;2023-12-20T13:34:29;1.63;;;0.95;;
5058;SDS011;2548;52.050;11.036;2023-12-20T13:36:57;2.95;;;0.85;;
5058;SDS011;2548;52.050;11.036;2023-12-20T13:39:33;2.05;;;1.17;;
5058;SDS011;2548;52.050;11.036;2023-12-20T13:42:07;1.60;;;1.10;;
5058;SDS011;2548;52.050;11.036;2023-12-20T13:44:34;1.77;;;0.82;;
5058;SDS011;2548;52.050;11.036;2023-12-20T13:47:02;0.88;;;0.88;;
5058;SDS011;2548;52.050;11.036;2023-12-20T13:49:32;3.00;;;0.70;;
5058;SDS011;2548;52.050;11.036;2023-12-20T13:52:02;1.17;;;0.90;;
5058;SDS011;2548;52.050;11.036;2023-12-20T13:54:30;6.15;;;1.58;;
5058;SDS011;2548;52.050;11.036;2023-12-20T13:56:57;4.20;;;1.10;;
5058;SDS011;2548;52.050;11.036;2023-12-20T13:59:25;3.13;;;1.20;;
5058;SDS011;2548;52.050;11.036;2023-12-20T14:01:52;4.57;;;0.75;;
5058;SDS011;2548;52.050;11.036;2023-12-20T14:04:25;2.58;;;0.95;;
5058;SDS011;2548;52.050;11.036;2023-12-20T14:06:53;0.65;;;0.65;;
5058;SDS011;2548;52.050;11.036;2023-12-20T14:09:24;2.45;;;1.02;;
5058;SDS011;2548;52.050;11.036;2023-12-20T14:11:51;3.38;;;0.80;;
5058;SDS011;2548;52.050;11.036;2023-12-20T14:14:26;0.90;;;0.90;;
5058;SDS011;2548;52.050;11.036;2023-12-20T14:17:02;6.25;;;1.13;;
5058;SDS011;2548;52.050;11.036;2023-12-20T14:19:36;11.93;;;3.05;;
5058;SDS011;2548;52.050;11.036;2023-12-20T14:22:06;4.18;;;1.10;;
5058;SDS011;2548;52.050;11.036;2023-12-20T14:24:35;3.00;;;0.80;;
5058;SDS011;2548;52.050;11.036;2023-12-20T14:27:02;2.67;;;1.10;;
5058;SDS011;2548;52.050;11.036;2023-12-20T14:29:30;3.38;;;0.65;;
5058;SDS011;2548;52.050;11.036;2023-12-20T14:31:59;0.82;;;0.82;;
5058;SDS011;2548;52.050;11.036;2023-12-20T14:34:31;2.80;;;1.40;;
5058;SDS011;2548;52.050;11.036;2023-12-20T14:37:01;2.20;;;0.90;;
5058;SDS011;2548;52.050;11.036;2023-12-20T14:39:29;1.27;;;0.90;;
5058;SDS011;2548;52.050;11.036;2023-12-20T14:42:01;4.30;;;1.33;;
5058;SDS011;2548;52.050;11.036;2023-12-20T14:44:34;7.88;;;1.90;;
5058;SDS011;2548;52.050;11.036;2023-12-20T14:47:02;0.85;;;0.85;;
5058;SDS011;2548;52.050;11.036;2023-12-20T14:49:34;1.85;;;0.80;;
5058;SDS011;2548;52.050;11.036;2023-12-20T14:52:03;2.13;;;0.85;;
5058;SDS011;2548;52.050;11.036;2023-12-20T14:54:31;3.45;;;1.15;;
5058;SDS011;2548;52.050;11.036;2023-12-20T14:56:59;2.65;;;0.85;;
5058;SDS011;2548;52.050;11.036;2023-12-20T14:59:28;1.58;;;1.00;;
5058;SDS011;2548;52.050;11.036;2023-12-20T15:01:55;0.95;;;0.85;;
5058;SDS011;2548;52.050;11.036;2023-12-20T15:04:23;6.22;;;1.75;;
5058;SDS011;2548;52.050;11.036;2023-12-20T15:06:54;1.52;;;0.80;;
5058;SDS011;2548;52.050;11.036;2023-12-20T15:09:29;2.95;;;0.80;;
5058;SDS011;2548;52.050;11.036;2023-12-20T15:11:56;1.15;;;1.02;;
5058;SDS011;2548;52.050;11.036;2023-12-20T15:14:28;4.22;;;2.10;;
5058;SDS011;2548;52.050;11.036;2023-12-20T15:16:55;7.13;;;5.15;;
5058;SDS011;2548;52.050;11.036;2023-12-20T15:19:23;3.47;;;2.92;;